createdAt,value
2018-06-10T00:02:48.695Z,24.70
2018-06-10T00:07:52.646Z,24.80
2018-06-10T00:13:59.536Z,24.90
2018-06-10T00:19:03.511Z,24.90
2018-06-10T00:24:07.467Z,24.80
2018-06-10T00:29:17.019Z,24.60
2018-06-10T00:34:20.990Z,23.60
2018-06-10T00:39:24.995Z,23.00
2018-06-10T00:44:28.976Z,23.20
2018-06-10T00:49:32.974Z,23.60
2018-06-10T00:54:36.942Z,23.50
2018-06-10T01:04:44.539Z,22.90
2018-06-10T01:09:48.503Z,23.30
2018-06-10T01:19:56.143Z,23.10
2018-06-10T01:30:03.751Z,23.30
2018-06-10T01:35:08.131Z,23.80
2018-06-10T01:45:15.940Z,24.30
2018-06-10T01:50:19.933Z,24.30
2018-06-10T01:55:23.899Z,24.30
2018-06-10T02:00:27.907Z,24.20
2018-06-10T02:05:31.867Z,24.20
2018-06-10T02:15:39.579Z,24.10
2018-06-10T02:20:43.554Z,24.10
2018-06-10T02:25:47.535Z,24.00
2018-06-10T02:30:51.577Z,23.90
2018-06-10T02:40:59.395Z,23.70
2018-06-10T02:46:03.379Z,23.80
2018-06-10T02:51:07.371Z,23.60
2018-06-10T02:56:11.386Z,23.40
2018-06-10T03:01:15.395Z,23.50
2018-06-10T03:06:19.379Z,23.60
2018-06-10T03:11:23.352Z,23.60
2018-06-10T03:16:27.327Z,23.60
2018-06-10T03:21:31.263Z,23.60
2018-06-10T03:26:35.304Z,23.40
2018-06-10T03:31:39.207Z,23.50
2018-06-10T03:36:43.332Z,23.20
2018-06-10T03:41:47.302Z,23.20
2018-06-10T03:46:51.291Z,23.10
2018-06-10T03:51:55.275Z,23.00
2018-06-10T03:56:59.267Z,23.10
2018-06-10T04:02:04.895Z,23.20
2018-06-10T04:07:08.961Z,23.30
2018-06-10T04:12:12.943Z,23.40
2018-06-10T04:17:16.916Z,23.40
2018-06-10T04:22:20.930Z,23.40
2018-06-10T04:27:24.945Z,23.40
2018-06-10T04:32:28.918Z,23.30
2018-06-10T04:37:33.150Z,23.00
2018-06-10T04:42:37.139Z,23.20
2018-06-10T04:47:41.121Z,22.80
2018-06-10T04:52:45.135Z,22.30
2018-06-10T04:57:49.943Z,22.40
2018-06-10T05:02:53.921Z,22.40
2018-06-10T05:07:57.915Z,22.70
2018-06-10T05:13:01.878Z,23.10
2018-06-10T05:18:05.841Z,23.40
2018-06-10T05:23:09.806Z,23.50
2018-06-10T05:33:17.386Z,23.60
2018-06-10T05:38:21.412Z,23.60
2018-06-10T05:43:25.399Z,23.60
2018-06-10T05:48:29.403Z,23.60
2018-06-10T05:53:33.367Z,23.50
2018-06-10T05:58:37.361Z,23.50
2018-06-10T06:03:41.338Z,23.70
2018-06-10T06:08:45.334Z,23.80
2018-06-10T06:13:49.313Z,24.10
2018-06-10T06:18:53.299Z,24.20
2018-06-10T06:23:57.300Z,24.30
2018-06-10T06:29:01.287Z,24.30
2018-06-10T06:34:05.267Z,24.60
2018-06-10T06:39:09.256Z,25.00
2018-06-10T06:44:13.247Z,25.00
2018-06-10T06:49:17.239Z,25.00
2018-06-10T06:54:21.213Z,25.10
2018-06-10T06:59:25.196Z,25.10
2018-06-10T07:04:29.140Z,25.00
2018-06-10T07:09:33.099Z,24.90
2018-06-10T07:14:37.052Z,24.80
2018-06-10T07:19:41.035Z,24.60
2018-06-10T07:29:48.666Z,24.30
2018-06-10T07:34:52.630Z,24.30
2018-06-10T07:39:56.696Z,24.00
2018-06-10T07:45:00.655Z,24.30
2018-06-10T07:50:04.664Z,24.60
2018-06-10T07:55:08.653Z,24.70
2018-06-10T08:00:12.680Z,25.20
2018-06-10T08:10:20.271Z,26.40
2018-06-10T08:15:24.234Z,27.10
2018-06-10T08:20:28.227Z,27.90
2018-06-10T08:25:32.206Z,27.90
2018-06-10T08:30:36.200Z,27.80
2018-06-10T08:40:43.852Z,28.40
2018-06-10T08:50:51.532Z,29.50
2018-06-10T08:55:55.522Z,29.60
2018-06-10T09:01:00.268Z,30.10
2018-06-10T09:06:04.257Z,29.90
2018-06-10T09:11:08.393Z,30.70
2018-06-10T09:16:12.423Z,31.80
2018-06-10T09:21:16.472Z,31.60
2018-06-10T09:26:20.474Z,31.40
2018-06-10T09:31:24.438Z,30.10
2018-06-10T09:36:28.419Z,28.90
2018-06-10T09:41:32.590Z,28.40
2018-06-10T09:46:36.591Z,28.50
2018-06-10T09:51:40.571Z,28.60
2018-06-10T09:56:44.584Z,28.70
2018-06-10T10:01:48.574Z,28.80
2018-06-10T10:06:52.643Z,28.80
2018-06-10T10:11:56.643Z,29.00
2018-06-10T10:17:00.629Z,29.40
2018-06-10T10:22:04.635Z,29.80
2018-06-10T10:27:08.606Z,30.10
2018-06-10T10:32:12.588Z,30.50
2018-06-10T10:37:16.638Z,30.60
2018-06-10T10:42:20.638Z,30.80
2018-06-10T10:47:24.655Z,31.50
2018-06-10T10:52:28.636Z,31.50
2018-06-10T10:57:32.636Z,30.90
2018-06-10T11:07:40.279Z,31.10
2018-06-10T11:12:44.272Z,31.60
2018-06-10T11:17:48.216Z,31.90
2018-06-10T11:22:52.211Z,32.20
2018-06-10T11:27:56.191Z,33.20
2018-06-10T11:38:03.802Z,32.60
2018-06-10T11:48:11.437Z,31.40
2018-06-10T11:53:15.407Z,31.40
2018-06-10T11:58:19.379Z,32.70
2018-06-10T12:03:23.402Z,33.50
2018-06-10T12:08:27.424Z,34.40
2018-06-10T12:13:31.375Z,33.80
2018-06-10T12:18:35.398Z,32.90
2018-06-10T12:23:39.359Z,32.00
2018-06-10T12:28:43.359Z,31.50
2018-06-10T12:33:47.352Z,32.00
2018-06-10T12:38:52.067Z,32.80
2018-06-10T12:43:56.044Z,33.50
2018-06-10T12:49:00.608Z,33.60
2018-06-10T12:54:04.557Z,33.10
2018-06-10T12:59:08.511Z,33.60
2018-06-10T13:04:12.546Z,33.70
2018-06-10T13:09:16.596Z,34.20
2018-06-10T13:14:51.112Z,34.60
2018-06-10T13:19:55.078Z,34.40
2018-06-10T13:30:02.687Z,33.90
2018-06-10T13:35:06.642Z,33.50
2018-06-10T13:40:10.608Z,34.50
2018-06-10T13:45:14.637Z,35.60
2018-06-10T13:50:18.614Z,36.40
2018-06-10T14:00:26.219Z,37.30
2018-06-10T14:05:30.232Z,37.20
2018-06-10T14:10:34.205Z,35.50
2018-06-10T14:15:38.214Z,35.30
2018-06-10T14:20:42.220Z,34.40
2018-06-10T14:25:46.184Z,33.60
2018-06-10T14:30:53.469Z,33.90
2018-06-10T14:35:57.506Z,34.80
2018-06-10T14:41:01.506Z,34.40
2018-06-10T14:46:05.687Z,34.70
2018-06-10T14:51:09.668Z,34.30
2018-06-10T14:56:13.652Z,34.70
2018-06-10T15:01:17.636Z,34.50
2018-06-10T15:11:25.214Z,34.70
2018-06-10T15:16:29.283Z,34.90
2018-06-10T15:21:35.171Z,35.20
2018-06-10T15:31:42.742Z,33.80
2018-06-10T15:36:46.812Z,32.80
2018-06-10T15:41:50.800Z,32.80
2018-06-10T15:46:54.785Z,32.80
2018-06-10T15:51:58.742Z,32.10
2018-06-10T15:57:03.678Z,31.80
2018-06-10T16:02:09.405Z,31.40
2018-06-10T16:07:13.387Z,31.20
2018-06-10T16:12:17.372Z,30.70
2018-06-10T16:17:22.148Z,30.20
2018-06-10T16:22:26.102Z,30.00
2018-06-10T16:27:30.174Z,29.40
2018-06-10T16:32:34.156Z,29.20
2018-06-10T16:42:41.732Z,29.30
2018-06-10T16:47:45.732Z,29.30
2018-06-10T16:52:49.748Z,29.20
2018-06-10T16:57:53.748Z,29.20
2018-06-10T17:02:57.800Z,29.00
2018-06-10T17:13:05.772Z,28.90
2018-06-10T17:18:09.747Z,28.70
2018-06-10T17:23:13.750Z,28.50
2018-06-10T17:28:17.761Z,27.90
2018-06-10T17:33:21.708Z,27.70
2018-06-10T17:38:25.686Z,27.80
2018-06-10T17:43:29.707Z,27.90
2018-06-10T17:53:37.346Z,27.60
2018-06-10T17:58:41.303Z,27.50
2018-06-10T18:03:45.358Z,27.30
2018-06-10T18:08:49.347Z,27.50
2018-06-10T18:18:59.813Z,27.50
2018-06-10T18:24:03.800Z,27.40
2018-06-10T18:34:11.399Z,27.50
2018-06-10T18:39:16.359Z,27.40
2018-06-10T18:44:20.324Z,27.20
2018-06-10T18:49:24.328Z,27.10
2018-06-10T18:59:34.695Z,27.00
2018-06-10T19:04:38.692Z,26.80
2018-06-10T19:10:45.629Z,26.80
2018-06-10T19:15:49.604Z,26.60
2018-06-10T19:20:53.579Z,26.40
2018-06-10T19:31:01.917Z,26.00
2018-06-10T19:36:06.111Z,25.90
2018-06-10T19:41:10.100Z,26.00
2018-06-10T19:46:14.076Z,25.90
2018-06-10T19:51:19.008Z,25.80
2018-06-10T19:56:23.283Z,25.80
2018-06-10T20:01:27.259Z,25.70
2018-06-10T20:06:31.253Z,25.50
2018-06-10T20:11:35.279Z,25.40
2018-06-10T20:16:39.273Z,25.40
2018-06-10T20:21:43.260Z,25.40
2018-06-10T20:37:59.044Z,25.10
2018-06-10T20:43:02.993Z,25.00
2018-06-10T20:48:06.987Z,25.10
2018-06-10T20:53:11.136Z,25.10
2018-06-10T20:58:15.160Z,25.00
2018-06-10T21:03:19.913Z,24.90
2018-06-10T21:08:23.948Z,24.80
2018-06-10T21:13:27.877Z,24.60
2018-06-10T21:18:31.847Z,24.30
2018-06-10T21:23:35.804Z,24.30
2018-06-10T21:28:40.515Z,24.30
2018-06-10T21:33:45.119Z,24.20
2018-06-10T21:38:49.465Z,23.80
2018-06-10T21:43:53.933Z,23.50
2018-06-10T21:48:59.140Z,23.60
2018-06-10T21:54:03.878Z,23.40
2018-06-10T21:59:08.866Z,23.50
2018-06-10T22:04:13.763Z,23.20
2018-06-10T22:09:20.135Z,23.10
2018-06-10T22:14:24.392Z,22.70
2018-06-10T22:19:28.670Z,22.70
2018-06-10T22:24:33.946Z,22.80
2018-06-10T22:29:38.335Z,23.10
2018-06-10T22:34:42.439Z,22.80
2018-06-10T22:39:46.963Z,22.50
2018-06-10T22:44:50.962Z,21.80
2018-06-10T22:49:54.934Z,21.80
2018-06-10T22:54:58.879Z,22.00
2018-06-10T23:00:02.897Z,22.10
2018-06-10T23:05:06.876Z,22.00
2018-06-10T23:10:10.879Z,18.90
2018-06-10T23:15:15.607Z,22.20
2018-06-10T23:20:19.579Z,22.30
2018-06-10T23:25:23.548Z,22.30
2018-06-10T23:35:31.154Z,22.10
2018-06-10T23:45:38.770Z,22.50
2018-06-10T23:50:42.761Z,22.40
2018-06-10T23:55:46.803Z,22.20
